ROMMA est une association bénévole à but non lucratif. Votre soutien est indispensable : ADHERER à ROMMA ou FAIRE un DON

Taninges - (74, Haute-Savoie)

Vallée du Giffre (635 m)   Longitude: 06° 35' 38" E   Latitude: 46° 06' 21" N Station romma n°98
 

Détail journalier du     <<     >>

Température Precipitation Humidité Pression Vent Dir Rafale Dir. rafale Ensol.
Heure (°C) (mm) (%) (hPa) (km/h) (km/h) (min)
01:00 7.006310233O10O0
02:00 8.605310234SE23ENE0
03:00 6.906410237OSO24O0
04:00 5.807010238ONO27ONO0
05:00 5.007510232ONO8ONO0
06:00 1.908310241ESE6SE0
07:00 1.508910241E5E0
08:00 4.808410231OSO6ENE45
09:00 8.107210232SE8ESE60
10:00 10.007010224SO15SO60
11:00 11.506310226O21ONO60
12:00 13.205710229ONO24O60
13:00 14.1057102211O24O60
14:00 15.1054102110O26ONO60
15:00 15.9051102110ONO24O60
16:00 16.1050102111O26O60
17:00 16.0048102110ONO23OSO60
18:00 15.404910227NO21ONO60
19:00 14.905010226ONO18NO60
20:00 13.605010225ENE23ENE45
21:00 11.605610225E16ESE0
22:00 9.306710233OSO13E0
23:00 7.907410232ONO10ONO0
minuit 6.407910232O10ENE0

Graphique du 13-05-2019

 

Serveur OMMA